Estación de San Rafael

Ultimos registro cada 15 minutos 47
Estación Fecha / Hora Temperatura Humedad Lluvia Velocidad Dirección Radiación Presion
47 San Rafael 07-05-2026 11:30 12,8 77,5 0 1 170 724,4 1008,3
46 San Rafael 07-05-2026 11:15 12,7 78,4 0 0,5 167 703,1 1008,2
45 San Rafael 07-05-2026 11:00 12,3 79,1 0 0,5 187 665,6 1008,6
44 San Rafael 07-05-2026 10:45 12,1 82,2 0 1 178 571,9 1008,6
43 San Rafael 07-05-2026 10:30 11,4 84,3 0 1 181 610,6 1008,5
42 San Rafael 07-05-2026 10:15 11,2 88,6 0 0,5 190 570,6 1008,4
41 San Rafael 07-05-2026 10:00 10,8 95 0 0 190 318,1 1008,7
40 San Rafael 07-05-2026 09:45 9,6 97,2 0 0,5 195 341,9 1008,6
39 San Rafael 07-05-2026 09:30 8,8 98,3 0 0 173 321,9 1008,5
38 San Rafael 07-05-2026 09:15 7,8 98,6 0 0 161 186,9 1008,6
37 San Rafael 07-05-2026 09:00 7,3 98,8 0 0 142 225,6 1008,1
36 San Rafael 07-05-2026 08:45 6,9 98,7 0 0 126 209,4 1008,3
35 San Rafael 07-05-2026 08:30 6,8 98,9 0 0 125 120,6 1008
34 San Rafael 07-05-2026 08:15 5,5 99,1 0 0 125 95,6 1008,3
33 San Rafael 07-05-2026 08:00 4,9 99,2 0 0 184 108,1 1008,1
32 San Rafael 07-05-2026 07:45 4 98,8 0 0 204 18,1 1007,7
31 San Rafael 07-05-2026 07:30 3,7 98,9 0 0 204 4,4 1007,7
30 San Rafael 07-05-2026 07:15 4 98,9 0 0 204 0,6 1007,5
29 San Rafael 07-05-2026 07:00 3,9 98,6 0 0 204 0,6 1007,3
28 San Rafael 07-05-2026 06:45 4,2 98,5 0 0 204 0,6 1007,2
27 San Rafael 07-05-2026 06:30 4,5 98,4 0 0 204 0,6 1007,1
26 San Rafael 07-05-2026 06:15 5,3 98,4 0 0 204 0,6 1007,1
25 San Rafael 07-05-2026 06:00 6,5 98,2 0 0 204 0,6 1007
24 San Rafael 07-05-2026 05:45 6,8 98,6 0 0 204 0,6 1007,1
23 San Rafael 07-05-2026 05:30 5,4 98,1 0 0 204 0,6 1006,7
22 San Rafael 07-05-2026 05:15 5,1 97,8 0 0 204 0,6 1006,4
21 San Rafael 07-05-2026 05:00 5,4 97,8 0 0 204 0,6 1006
20 San Rafael 07-05-2026 04:45 5,3 97,5 0 0 204 0,6 1006,1
19 San Rafael 07-05-2026 04:30 5,5 97,3 0 0 204 0,6 1005,8
18 San Rafael 07-05-2026 04:15 5,9 97,1 0 0 204 0,6 1005,9
17 San Rafael 07-05-2026 04:00 6,5 96,7 0 0 204 0,6 1005,6
16 San Rafael 07-05-2026 03:45 7,5 97 0 0 204 0,6 1005,6
15 San Rafael 07-05-2026 03:30 8 97 0 0 204 0,6 1005,7
14 San Rafael 07-05-2026 03:15 8,1 97,1 0 0 204 0,6 1005,6
13 San Rafael 07-05-2026 03:00 8,1 97,1 0 0 204 0,6 1005,4
12 San Rafael 07-05-2026 02:45 8,6 97,1 0 0 204 0,6 1005,6
11 San Rafael 07-05-2026 02:30 8,6 97,4 0 0 204 0,6 1005,5
10 San Rafael 07-05-2026 02:15 8,6 97,2 0 0 204 0,6 1005,6
9 San Rafael 07-05-2026 02:00 8,3 97,2 0 0 204 0,6 1005,4
8 San Rafael 07-05-2026 01:45 7,3 97,3 0 0 204 0,6 1005
7 San Rafael 07-05-2026 01:30 7,2 96,8 0 0 204 0,6 1004,8
6 San Rafael 07-05-2026 01:15 7,7 95,8 0 0 204 0,6 1004,6
5 San Rafael 07-05-2026 01:00 8,2 95,6 0 0 204 0,6 1004,8
4 San Rafael 07-05-2026 00:45 8,3 95,2 0 0 204 0,6 1004,7
3 San Rafael 07-05-2026 00:30 8,2 94,1 0 0 204 0,6 1004,7
2 San Rafael 07-05-2026 00:15 9 93,7 0 0 204 0,6 1004,7
1 San Rafael 07-05-2026 00:00 8,8 92,8 0 0 204 0,6 1004,6